Time;durP1;ratioP1;P1;durP2;ratioP2;P2;SDS_P1;SDS_P2;PMS_P1;PMS_P2;Temp;Humidity;BMP_temperature;BMP_pressure;BME280_temperature;BME280_humidity;BME280_pressure;Samples;Min_cycle;Max_cycle;Signal;HPM_P1;HPM_P2
2023/07/13 00:02:28;;;;;;;2.78;0.98;;;;;;;16.62;100.00;101202.34;5090638;28;20131;-73
2023/07/13 00:05:13;;;;;;;2.03;0.90;;;;;;;16.61;100.00;101203.28;5089292;28;20553;-73
2023/07/13 00:07:59;;;;;;;1.65;0.70;;;;;;;16.58;100.00;101197.28;5089665;28;20038;-73
2023/07/13 00:10:46;;;;;;;2.85;0.80;;;;;;;16.56;100.00;101211.63;5090802;28;20099;-73
2023/07/13 00:13:32;;;;;;;1.58;0.90;;;;;;;16.53;100.00;101208.28;5088398;27;20036;-73
2023/07/13 00:16:18;;;;;;;3.33;0.77;;;;;;;16.53;100.00;101210.97;5090838;27;20125;-73
2023/07/13 00:19:05;;;;;;;2.25;0.90;;;;;;;16.51;100.00;101210.22;5078976;27;20035;-73
2023/07/13 00:21:50;;;;;;;2.25;0.60;;;;;;;16.49;100.00;101202.28;5097666;27;20043;-73
2023/07/13 00:24:41;;;;;;;2.47;0.90;;;;;;;16.47;100.00;101214.03;5064991;27;20301;-73
2023/07/13 00:27:27;;;;;;;1.73;0.60;;;;;;;16.46;100.00;101217.66;5092902;27;20410;-73
2023/07/13 00:30:13;;;;;;;1.63;0.80;;;;;;;16.43;100.00;101219.59;5076995;27;20077;-73
2023/07/13 00:33:01;;;;;;;1.80;0.73;;;;;;;16.40;100.00;101214.41;5076251;27;20038;-72
2023/07/13 00:35:47;;;;;;;2.13;0.70;;;;;;;16.39;100.00;101211.84;5097280;27;20079;-74
2023/07/13 00:38:35;;;;;;;2.97;0.90;;;;;;;16.39;100.00;101209.16;5093783;27;20048;-73
2023/07/13 00:41:21;;;;;;;1.67;0.80;;;;;;;16.38;100.00;101204.78;5078628;27;20043;-73
2023/07/13 00:44:13;;;;;;;3.97;0.98;;;;;;;16.37;100.00;101209.28;5091422;27;20510;-73
2023/07/13 00:46:59;;;;;;;3.22;1.17;;;;;;;16.37;100.00;101208.41;5075986;27;20067;-73
2023/07/13 00:49:45;;;;;;;2.72;0.98;;;;;;;16.34;100.00;101204.13;5076977;27;20832;-72
2023/07/13 00:52:31;;;;;;;1.73;0.70;;;;;;;16.31;100.00;101209.69;5077433;27;20023;-73
2023/07/13 00:55:17;;;;;;;1.75;0.88;;;;;;;16.28;100.00;101205.38;5076091;27;20429;-73
2023/07/13 00:58:04;;;;;;;2.20;0.68;;;;;;;16.26;100.00;101201.09;5080769;27;21023;-73
2023/07/13 01:00:51;;;;;;;1.20;0.82;;;;;;;16.23;100.00;101207.50;5078345;27;20051;-73
2023/07/13 01:03:37;;;;;;;2.67;0.75;;;;;;;16.20;100.00;101207.69;5078982;27;20093;-74
2023/07/13 01:06:24;;;;;;;2.40;0.80;;;;;;;16.19;100.00;101207.78;5094147;27;20039;-73
2023/07/13 01:09:11;;;;;;;2.28;0.88;;;;;;;16.15;100.00;101209.78;5096869;27;20035;-73
2023/07/13 01:11:57;;;;;;;3.72;0.82;;;;;;;16.13;100.00;101209.88;5076655;27;20870;-73
2023/07/13 01:14:43;;;;;;;1.33;0.60;;;;;;;16.10;100.00;101215.44;5097482;27;20103;-73
2023/07/13 01:17:29;;;;;;;2.33;1.05;;;;;;;16.06;100.00;101219.25;5080681;27;20042;-73
2023/07/13 01:20:15;;;;;;;1.48;0.85;;;;;;;16.02;100.00;101221.25;5081998;27;20114;-73
2023/07/13 01:23:00;;;;;;;1.95;0.80;;;;;;;15.97;100.00;101228.69;5097005;27;20502;-73
2023/07/13 01:25:46;;;;;;;2.40;0.70;;;;;;;15.91;100.00;101223.69;5097056;27;21010;-73
2023/07/13 01:28:36;;;;;;;1.08;0.80;;;;;;;15.86;100.00;101221.31;5097327;27;20043;-73
2023/07/13 01:31:22;;;;;;;1.52;0.75;;;;;;;15.81;100.00;101215.41;5093222;27;20081;-73
2023/07/13 01:34:08;;;;;;;2.50;0.93;;;;;;;15.78;100.00;101209.38;5097871;27;20103;-73
2023/07/13 01:36:53;;;;;;;1.58;0.70;;;;;;;15.74;100.00;101196.25;5078543;27;20039;-73
2023/07/13 01:39:39;;;;;;;0.90;0.70;;;;;;;15.70;100.00;101194.69;5097362;27;20870;-73
2023/07/13 01:42:25;;;;;;;3.75;1.02;;;;;;;15.67;100.00;101205.56;5081085;27;20111;-73
2023/07/13 01:45:11;;;;;;;3.17;0.90;;;;;;;15.65;100.00;101211.97;5080985;27;20035;-74
2023/07/13 01:47:57;;;;;;;4.30;1.08;;;;;;;15.63;100.00;101206.72;5095608;27;20979;-73
2023/07/13 01:50:43;;;;;;;6.60;1.00;;;;;;;15.63;100.00;101208.53;5095330;27;20116;-73
2023/07/13 01:53:29;;;;;;;4.40;1.00;;;;;;;15.63;100.00;101204.03;5080906;27;20063;-72
2023/07/13 01:56:15;;;;;;;1.65;0.88;;;;;;;15.62;100.00;101205.00;5095741;27;20038;-73
2023/07/13 01:59:00;;;;;;;5.03;1.33;;;;;;;15.63;100.00;101198.69;5096561;27;20067;-73
2023/07/13 02:01:46;;;;;;;3.53;0.90;;;;;;;15.64;100.00;101204.91;5091444;27;20062;-73
2023/07/13 02:04:32;;;;;;;3.05;1.17;;;;;;;15.65;100.00;101206.63;5094429;27;20044;-73
2023/07/13 02:07:18;;;;;;;3.92;1.15;;;;;;;15.65;100.00;101203.94;5096358;27;20038;-73
2023/07/13 02:10:05;;;;;;;2.38;1.02;;;;;;;15.67;100.00;101199.38;5082550;27;20479;-73
2023/07/13 02:12:50;;;;;;;5.18;1.20;;;;;;;15.68;100.00;101203.78;5095190;27;20388;-74
2023/07/13 02:15:39;;;;;;;5.22;1.38;;;;;;;15.68;100.00;101201.94;5098708;27;22118;-73
2023/07/13 02:18:25;;;;;;;3.08;1.23;;;;;;;15.69;100.00;101205.50;5096533;27;20040;-73
2023/07/13 02:21:11;;;;;;;4.68;1.63;;;;;;;15.69;100.00;101203.66;5095278;27;20039;-73
2023/07/13 02:23:57;;;;;;;3.35;1.40;;;;;;;15.67;100.00;101196.69;5082218;27;20039;-73
2023/07/13 02:26:43;;;;;;;6.70;1.70;;;;;;;15.69;100.00;101213.50;5095675;27;20055;-73
2023/07/13 02:29:29;;;;;;;9.98;1.60;;;;;;;15.68;100.00;101212.63;5071401;27;20089;-73
2023/07/13 02:32:15;;;;;;;4.47;1.40;;;;;;;15.67;100.00;101207.38;5092774;27;20050;-73
2023/07/13 02:35:01;;;;;;;5.97;2.00;;;;;;;15.65;100.00;101207.50;5096201;27;20100;-73
2023/07/13 02:37:46;;;;;;;5.80;1.65;;;;;;;15.64;100.00;101204.91;5078441;27;20043;-73
2023/07/13 02:40:35;;;;;;;3.58;1.73;;;;;;;15.61;100.00;101209.50;5096055;27;20124;-73
2023/07/13 02:43:21;;;;;;;3.60;1.73;;;;;;;15.60;100.00;101210.41;5079163;27;20389;-73
2023/07/13 02:46:10;;;;;;;5.13;2.40;;;;;;;15.60;100.00;101205.06;5096588;27;20434;-73
2023/07/13 02:48:55;;;;;;;3.92;1.65;;;;;;;15.59;100.00;101203.38;5081514;27;20130;-73
2023/07/13 02:51:41;;;;;;;7.93;2.10;;;;;;;15.59;100.00;101211.38;5093139;27;20043;-73
2023/07/13 02:54:27;;;;;;;6.70;1.92;;;;;;;15.59;100.00;101207.88;5095972;27;20063;-72
2023/07/13 02:57:12;;;;;;;9.05;2.30;;;;;;;15.59;100.00;101198.03;5081012;27;20043;-72
2023/07/13 02:59:59;;;;;;;8.93;2.00;;;;;;;15.59;100.00;101199.84;5078286;27;20100;-72
2023/07/13 03:02:45;;;;;;;4.75;1.67;;;;;;;15.58;100.00;101204.31;5076385;27;20042;-73
2023/07/13 03:05:31;;;;;;;7.55;1.98;;;;;;;15.56;100.00;101208.91;5094994;27;20221;-73
2023/07/13 03:08:18;;;;;;;4.72;1.83;;;;;;;15.55;100.00;101222.34;5094392;27;20039;-73
2023/07/13 03:11:10;;;;;;;4.00;1.92;;;;;;;15.52;100.00;101218.03;5096676;27;20156;-72
2023/07/13 03:13:57;;;;;;;4.00;1.88;;;;;;;15.50;100.00;101219.94;5093487;27;20031;-73
2023/07/13 03:16:42;;;;;;;5.20;1.70;;;;;;;15.48;100.00;101221.84;5077191;27;20078;-73
2023/07/13 03:19:28;;;;;;;4.38;1.92;;;;;;;15.45;100.00;101214.91;5096251;27;20028;-73
2023/07/13 03:22:14;;;;;;;3.83;1.90;;;;;;;15.43;100.00;101218.59;5093615;27;20522;-73
2023/07/13 03:25:00;;;;;;;6.82;1.85;;;;;;;15.42;100.00;101224.91;5095086;27;21980;-73
2023/07/13 03:27:45;;;;;;;5.93;1.67;;;;;;;15.39;100.00;101227.72;5095805;27;20027;-73
2023/07/13 03:30:31;;;;;;;6.55;2.08;;;;;;;15.38;100.00;101224.22;5093491;27;20035;-73
2023/07/13 03:33:17;;;;;;;6.32;2.28;;;;;;;15.38;100.00;101224.22;5075999;28;20162;-73
2023/07/13 03:36:04;;;;;;;2.33;1.77;;;;;;;15.36;100.00;101223.44;5095265;27;20109;-73
2023/07/13 03:38:52;;;;;;;8.75;2.10;;;;;;;15.37;100.00;101225.19;5075623;28;20144;-74
2023/07/13 03:41:38;;;;;;;4.25;1.77;;;;;;;15.36;100.00;101222.59;5078568;28;20039;-73
2023/07/13 03:44:24;;;;;;;8.75;1.70;;;;;;;15.34;100.00;101228.88;5095398;28;20075;-73
2023/07/13 03:47:10;;;;;;;4.47;1.70;;;;;;;15.30;100.00;101232.66;5090994;28;20086;-74
2023/07/13 03:49:55;;;;;;;4.45;1.90;;;;;;;15.31;100.00;101236.22;5096035;27;20073;-73
2023/07/13 03:52:41;;;;;;;2.70;1.70;;;;;;;15.28;100.00;101236.38;5097716;27;20550;-73
2023/07/13 03:55:27;;;;;;;4.20;2.08;;;;;;;15.26;100.00;101244.47;5097385;27;20035;-73
2023/07/13 03:58:33;;;;;;;7.20;2.00;;;;;;;15.26;100.00;101244.47;5082165;27;20035;-73
2023/07/13 04:01:20;;;;;;;5.75;1.90;;;;;;;15.25;100.00;101248.06;5067515;27;20523;-73
2023/07/13 04:04:06;;;;;;;3.25;1.77;;;;;;;15.24;100.00;101241.03;5070952;27;20027;-73
2023/07/13 04:06:53;;;;;;;4.30;1.85;;;;;;;15.23;100.00;101243.78;5097864;27;20071;-73
2023/07/13 04:09:38;;;;;;;6.55;2.00;;;;;;;15.22;100.00;101248.28;5080480;27;20189;-73
2023/07/13 04:12:24;;;;;;;4.85;1.55;;;;;;;15.22;100.00;101248.28;5100280;27;20031;-73
2023/07/13 04:15:10;;;;;;;5.88;1.77;;;;;;;15.24;100.00;101258.84;5095536;27;20046;-74
2023/07/13 04:17:55;;;;;;;3.22;1.83;;;;;;;15.24;100.00;101257.03;5098551;27;20035;-73
2023/07/13 04:20:41;;;;;;;6.15;2.08;;;;;;;15.26;100.00;101257.78;5097004;27;20038;-73
2023/07/13 04:23:27;;;;;;;4.15;1.58;;;;;;;15.29;100.00;101254.09;5083659;27;20502;-73
2023/07/13 04:26:13;;;;;;;5.70;1.85;;;;;;;15.30;100.00;101262.00;5084004;27;20051;-74
2023/07/13 04:28:58;;;;;;;6.20;2.00;;;;;;;15.32;100.00;101256.59;5099515;27;20752;-74
2023/07/13 04:31:44;;;;;;;8.57;1.85;;;;;;;15.34;100.00;101260.88;5096084;27;20038;-74
2023/07/13 04:34:30;;;;;;;4.05;1.70;;;;;;;15.38;100.00;101264.22;5065127;27;20060;-73
2023/07/13 04:37:16;;;;;;;3.92;1.90;;;;;;;15.41;100.00;101268.53;5084551;27;20129;-73
2023/07/13 04:40:03;;;;;;;7.82;1.95;;;;;;;15.44;100.00;101273.66;5099019;27;20031;-74
2023/07/13 04:42:49;;;;;;;5.47;2.10;;;;;;;15.48;100.00;101270.72;5099391;27;20043;-73
2023/07/13 04:45:35;;;;;;;7.90;1.92;;;;;;;15.53;100.00;101274.94;5077325;27;20039;-74
2023/07/13 04:48:21;;;;;;;4.85;1.77;;;;;;;15.55;100.00;101281.91;5099292;27;20058;-74
2023/07/13 04:51:07;;;;;;;3.83;2.08;;;;;;;15.61;100.00;101280.66;5080509;27;20042;-74
2023/07/13 04:53:53;;;;;;;5.80;2.17;;;;;;;15.66;100.00;101291.06;5097046;27;21982;-74
2023/07/13 04:56:38;;;;;;;4.95;1.73;;;;;;;15.70;100.00;101290.78;5081802;27;20039;-74
2023/07/13 04:59:24;;;;;;;2.88;1.65;;;;;;;15.74;100.00;101291.47;5097895;27;20460;-73
2023/07/13 05:02:10;;;;;;;7.65;2.10;;;;;;;15.81;100.00;101297.28;5094358;27;20043;-73
2023/07/13 05:04:56;;;;;;;5.75;2.00;;;;;;;15.85;100.00;101291.69;5069888;27;20035;-73
2023/07/13 05:07:41;;;;;;;4.25;2.00;;;;;;;15.93;100.00;101295.72;5097114;27;20082;-73
2023/07/13 05:10:27;;;;;;;5.60;2.13;;;;;;;15.97;100.00;101295.44;5095620;27;20143;-73
2023/07/13 05:13:13;;;;;;;1.98;1.67;;;;;;;16.03;100.00;101299.56;5098324;27;20040;-73
2023/07/13 05:16:01;;;;;;;4.88;1.88;;;;;;;16.09;100.00;101300.97;5096131;27;20146;-73
2023/07/13 05:18:47;;;;;;;6.95;2.00;;;;;;;16.15;100.00;101308.63;5081122;27;20509;-74
2023/07/13 05:21:32;;;;;;;7.68;1.98;;;;;;;16.23;100.00;101309.00;5096681;27;20052;-74
2023/07/13 05:24:18;;;;;;;8.10;1.83;;;;;;;16.30;100.00;101314.84;5081519;27;20047;-74
2023/07/13 05:27:05;;;;;;;2.60;1.85;;;;;;;16.39;100.00;101321.38;5083371;27;20082;-74
2023/07/13 05:29:50;;;;;;;3.85;1.90;;;;;;;16.46;100.00;101328.09;5097808;27;20043;-74
2023/07/13 05:32:36;;;;;;;7.10;1.98;;;;;;;16.54;100.00;101333.81;5096247;27;20428;-73
2023/07/13 05:35:22;;;;;;;4.22;1.65;;;;;;;16.62;100.00;101330.63;5094641;27;20496;-73
2023/07/13 05:38:07;;;;;;;6.70;2.05;;;;;;;16.70;100.00;101330.16;5097176;27;20497;-74
2023/07/13 05:40:55;;;;;;;6.10;2.58;;;;;;;16.80;100.00;101331.28;5097791;27;20668;-74
2023/07/13 05:43:41;;;;;;;5.10;1.83;;;;;;;16.90;100.00;101330.69;5082510;27;20762;-74
2023/07/13 05:46:26;;;;;;;6.47;1.80;;;;;;;17.00;100.00;101322.94;5096458;27;20117;-73
2023/07/13 05:49:12;;;;;;;8.07;2.45;;;;;;;17.12;100.00;101327.50;5081165;27;20031;-74
2023/07/13 05:51:58;;;;;;;6.22;1.75;;;;;;;17.24;100.00;101334.72;5097843;27;20044;-73
2023/07/13 05:54:44;;;;;;;5.25;2.20;;;;;;;17.38;100.00;101332.97;5079329;27;20044;-73
2023/07/13 05:57:30;;;;;;;4.57;1.80;;;;;;;17.55;100.00;101333.63;5098198;27;20093;-73
2023/07/13 06:00:16;;;;;;;3.50;1.70;;;;;;;17.77;100.00;101327.69;5082504;27;20050;-74
2023/07/13 06:03:02;;;;;;;7.55;1.88;;;;;;;17.93;100.00;101330.16;5097711;27;20551;-73
2023/07/13 06:05:48;;;;;;;6.18;1.73;;;;;;;17.98;100.00;101329.84;5093863;27;20166;-73
2023/07/13 06:08:33;;;;;;;6.72;1.52;;;;;;;17.99;100.00;101329.75;5097582;27;20051;-73
2023/07/13 06:11:23;;;;;;;6.30;1.60;;;;;;;17.91;100.00;101340.97;5080458;27;20059;-73
2023/07/13 06:14:08;;;;;;;6.80;1.85;;;;;;;17.80;100.00;101326.63;5077595;27;20104;-72
2023/07/13 06:16:54;;;;;;;8.77;1.95;;;;;;;17.61;100.00;101327.88;5097158;27;20088;-72
2023/07/13 06:19:40;;;;;;;2.90;1.63;;;;;;;17.38;100.00;101344.50;5082672;27;20121;-72
2023/07/13 06:22:25;;;;;;;5.18;1.80;;;;;;;17.23;100.00;101345.53;5075323;27;20955;-72
2023/07/13 06:25:11;;;;;;;5.82;1.98;;;;;;;17.12;100.00;101356.94;5081246;27;20377;-73
2023/07/13 06:27:57;;;;;;;6.38;1.98;;;;;;;16.97;100.00;101356.94;5081265;27;20032;-72
2023/07/13 06:30:43;;;;;;;4.05;2.10;;;;;;;16.86;100.00;101354.09;5079867;27;20049;-73
2023/07/13 06:33:29;;;;;;;8.55;2.58;;;;;;;16.79;100.00;101364.31;5082285;27;20048;-72
2023/07/13 06:36:15;;;;;;;5.20;2.35;;;;;;;16.82;100.00;101364.13;5094076;27;20059;-73
2023/07/13 06:39:00;;;;;;;7.88;2.50;;;;;;;17.01;100.00;101362.09;5076774;27;20484;-73
2023/07/13 06:41:46;;;;;;;4.18;2.30;;;;;;;17.28;100.00;101363.94;5095702;27;20389;-73
2023/07/13 06:44:32;;;;;;;7.22;2.20;;;;;;;17.51;100.00;101360.63;5097135;27;20042;-73
2023/07/13 06:47:18;;;;;;;6.15;1.95;;;;;;;17.62;100.00;101351.88;5096915;27;20052;-73
2023/07/13 06:50:04;;;;;;;4.82;1.88;;;;;;;17.65;100.00;101356.13;5096210;27;20042;-72
2023/07/13 06:52:49;;;;;;;4.22;1.55;;;;;;;17.65;100.00;101364.16;5097519;27;20057;-72
2023/07/13 06:55:35;;;;;;;5.45;1.73;;;;;;;17.61;100.00;101374.22;5082167;27;20126;-72
2023/07/13 06:58:21;;;;;;;5.75;1.80;;;;;;;17.57;100.00;101371.84;5097085;27;20684;-73
2023/07/13 07:01:07;;;;;;;5.28;1.80;;;;;;;17.55;100.00;101376.47;5069350;27;20564;-75
2023/07/13 07:03:52;;;;;;;3.85;1.63;;;;;;;17.51;100.00;101376.69;5077183;27;20035;-73
2023/07/13 07:06:38;;;;;;;5.38;1.80;;;;;;;17.52;100.00;101382.88;5093288;27;20130;-73
2023/07/13 07:09:24;;;;;;;5.07;1.70;;;;;;;17.57;100.00;101379.88;5075674;27;20480;-72
2023/07/13 07:12:10;;;;;;;2.22;1.60;;;;;;;17.61;100.00;101376.88;5088879;27;20519;-74
2023/07/13 07:14:57;;;;;;;2.53;1.30;;;;;;;17.67;100.00;101385.47;5075444;27;20035;-73
2023/07/13 07:17:43;;;;;;;5.07;1.48;;;;;;;17.69;100.00;101389.78;5091796;27;20035;-73
2023/07/13 07:20:30;;;;;;;3.70;1.40;;;;;;;17.74;100.00;101392.13;5093297;27;20066;-73
2023/07/13 07:23:16;;;;;;;4.95;1.48;;;;;;;17.77;100.00;101400.81;5073252;27;20159;-73
2023/07/13 07:26:02;;;;;;;3.70;1.70;;;;;;;17.83;100.00;101388.00;5075753;27;20103;-73
2023/07/13 07:28:48;;;;;;;3.03;1.35;;;;;;;17.98;100.00;101388.78;5095258;27;20065;-73
2023/07/13 07:31:34;;;;;;;2.75;1.40;;;;;;;18.08;100.00;101391.72;5090916;27;20046;-73
2023/07/13 07:34:20;;;;;;;6.22;1.40;;;;;;;18.15;100.00;101393.84;5091140;27;20104;-72
2023/07/13 07:37:05;;;;;;;5.60;1.50;;;;;;;18.19;100.00;101395.34;5092035;27;20817;-73
2023/07/13 07:39:51;;;;;;;4.88;1.67;;;;;;;18.26;100.00;101382.38;5093684;28;20031;-73
2023/07/13 07:42:40;;;;;;;4.28;1.55;;;;;;;18.42;100.00;101392.03;5078827;28;20134;-73
2023/07/13 07:45:26;;;;;;;5.43;1.67;;;;;;;18.73;100.00;101387.16;5077469;28;20067;-73
2023/07/13 07:48:12;;;;;;;2.20;1.33;;;;;;;18.94;100.00;101387.44;5075545;28;22002;-73
2023/07/13 07:50:58;;;;;;;2.10;1.15;;;;;;;19.18;100.00;101380.44;5077192;28;20039;-74
2023/07/13 07:53:43;;;;;;;2.80;1.48;;;;;;;19.48;100.00;101379.97;5080426;28;20060;-74
2023/07/13 07:56:29;;;;;;;4.00;1.40;;;;;;;19.66;100.00;101391.16;5086286;28;20042;-75
2023/07/13 07:59:15;;;;;;;4.05;1.50;;;;;;;19.65;100.00;101388.59;5078886;28;20947;-73
2023/07/13 08:02:02;;;;;;;3.15;1.30;;;;;;;19.72;100.00;101380.94;5087907;28;20122;-74
2023/07/13 08:04:48;;;;;;;3.10;1.42;;;;;;;19.76;100.00;101391.31;5086983;28;20063;-74
2023/07/13 08:07:34;;;;;;;4.57;1.52;;;;;;;19.67;100.00;101392.03;5075105;28;20063;-73
2023/07/13 08:10:20;;;;;;;2.80;1.80;;;;;;;19.45;100.00;101390.09;5094863;28;20415;-73
2023/07/13 08:13:06;;;;;;;4.20;1.55;;;;;;;19.35;100.00;101397.97;5092791;28;20036;-73
2023/07/13 08:15:51;;;;;;;2.05;1.45;;;;;;;19.54;100.00;101394.78;5078586;28;20031;-74
2023/07/13 08:18:37;;;;;;;2.60;1.70;;;;;;;19.80;100.00;101408.06;5096993;28;20043;-73
2023/07/13 08:21:23;;;;;;;3.63;1.55;;;;;;;19.97;100.00;101400.56;5093250;28;20070;-73
2023/07/13 08:24:09;;;;;;;3.60;1.40;;;;;;;20.09;100.00;101399.63;5091176;28;20695;-73
2023/07/13 08:26:55;;;;;;;1.58;1.38;;;;;;;20.29;100.00;101399.91;5071801;28;20051;-74
2023/07/13 08:29:41;;;;;;;3.20;1.23;;;;;;;20.38;100.00;101392.94;5087973;28;20043;-74
2023/07/13 08:32:26;;;;;;;3.80;1.60;;;;;;;20.57;100.00;101397.72;5096618;28;20036;-73
2023/07/13 08:35:13;;;;;;;4.03;1.48;;;;;;;20.81;100.00;101399.44;5095934;27;20043;-73
2023/07/13 08:38:00;;;;;;;2.15;1.40;;;;;;;21.03;100.00;101398.59;5084900;27;20483;-74
2023/07/13 08:40:52;;;;;;;1.65;1.20;;;;;;;21.26;98.21;101404.78;5085948;27;20040;-74
2023/07/13 08:43:38;;;;;;;2.60;1.30;;;;;;;21.40;98.54;101400.06;5100072;27;20446;-74
2023/07/13 08:46:28;;;;;;;1.92;1.10;;;;;;;21.65;95.99;101401.59;5098552;27;20292;-75
2023/07/13 08:49:16;;;;;;;2.47;1.00;;;;;;;21.77;95.33;101396.16;5086046;27;20102;-73
2023/07/13 08:52:35;;;;;;;1.92;1.00;;;;;;;21.76;89.12;101403.41;5099815;27;20035;-73
2023/07/13 08:55:25;;;;;;;3.05;1.08;;;;;;;21.61;91.04;101407.38;5100691;27;20035;-73
2023/07/13 08:58:14;;;;;;;1.77;1.10;;;;;;;21.39;92.04;101414.53;5098336;27;20031;-74
2023/07/13 09:01:14;;;;;;;0.80;0.80;;;;;;;21.20;89.73;101421.44;5099464;27;20027;-74
2023/07/13 09:04:15;;;;;;;1.52;0.82;;;;;;;21.19;87.83;101418.88;5081244;27;20108;-74
2023/07/13 09:07:18;;;;;;;1.20;1.05;;;;;;;21.32;90.72;101421.41;5100589;27;20042;-74
2023/07/13 09:10:30;;;;;;;1.02;0.90;;;;;;;21.53;91.07;101419.59;5081611;27;20035;-75
2023/07/13 09:13:22;;;;;;;1.00;0.90;;;;;;;21.61;86.06;101423.53;5098316;27;20515;-75
2023/07/13 09:16:09;;;;;;;1.58;0.90;;;;;;;21.55;88.25;101425.75;5100658;27;20036;-75
2023/07/13 09:19:00;;;;;;;2.60;1.00;;;;;;;21.60;85.08;101427.19;5100142;27;20980;-74
2023/07/13 09:21:46;;;;;;;1.17;0.90;;;;;;;21.67;89.02;101426.53;5082802;27;20058;-74
2023/07/13 09:24:36;;;;;;;2.00;0.80;;;;;;;21.51;86.48;101429.66;5094116;27;20071;-73
2023/07/13 09:27:28;;;;;;;1.08;0.70;;;;;;;21.26;86.02;101437.09;5093300;27;20043;-73
2023/07/13 09:30:14;;;;;;;1.67;0.80;;;;;;;21.31;87.78;101447.47;5085804;27;20512;-73
2023/07/13 09:33:00;;;;;;;1.30;0.75;;;;;;;21.49;85.60;101439.72;5096956;27;20031;-74
2023/07/13 09:35:45;;;;;;;1.35;0.77;;;;;;;21.54;84.56;101440.19;5097557;27;20043;-74
2023/07/13 09:38:33;;;;;;;1.48;0.82;;;;;;;21.66;83.89;101456.31;5068205;27;20052;-74
2023/07/13 09:41:28;;;;;;;1.45;0.70;;;;;;;21.80;79.35;101458.72;5079917;27;20309;-76
2023/07/13 09:44:16;;;;;;;2.40;1.13;;;;;;;21.81;79.79;101452.38;5082689;27;20180;-75
2023/07/13 09:47:03;;;;;;;0.80;0.70;;;;;;;21.87;80.47;101455.53;5076908;27;20035;-76
2023/07/13 09:49:55;;;;;;;0.80;0.75;;;;;;;22.10;79.45;101451.75;5080656;27;20151;-75
2023/07/13 09:52:44;;;;;;;0.60;0.60;;;;;;;22.42;79.72;101455.34;5075589;27;20036;-75
2023/07/13 09:55:38;;;;;;;3.50;0.80;;;;;;;22.42;76.06;101459.88;5094512;27;20043;-76
2023/07/13 09:58:27;;;;;;;1.67;1.05;;;;;;;22.25;76.38;101470.28;5077246;27;20601;-75
2023/07/13 10:01:14;;;;;;;0.88;0.77;;;;;;;22.20;76.59;101464.44;5080033;27;20961;-74
2023/07/13 10:04:00;;;;;;;2.20;1.00;;;;;;;22.15;76.26;101472.91;5078059;27;20039;-74
2023/07/13 10:06:46;;;;;;;1.15;0.82;;;;;;;22.11;75.64;101472.31;5066908;27;20035;-75
2023/07/13 10:09:32;;;;;;;3.45;1.08;;;;;;;22.25;76.34;101475.69;5079383;27;20608;-73
2023/07/13 10:12:18;;;;;;;1.95;1.02;;;;;;;22.36;74.87;101482.84;5080059;27;20043;-74
2023/07/13 10:15:10;;;;;;;1.45;1.02;;;;;;;22.30;73.60;101469.88;5097914;27;20837;-76
2023/07/13 10:17:58;;;;;;;1.95;0.90;;;;;;;22.18;75.16;101478.03;5083618;27;20028;-77
2023/07/13 10:20:44;;;;;;;1.20;1.10;;;;;;;22.03;75.73;101480.22;5077233;27;20072;-81
2023/07/13 10:23:32;;;;;;;3.65;1.27;;;;;;;21.94;75.16;101472.88;5096695;27;20676;-77
2023/07/13 10:26:31;;;;;;;3.47;1.23;;;;;;;21.88;75.29;101485.03;5068833;27;20106;-77
2023/07/13 10:29:18;;;;;;;4.78;1.23;;;;;;;21.99;75.42;101486.84;5096850;27;20058;-77
2023/07/13 10:32:11;;;;;;;1.42;0.95;;;;;;;22.00;74.42;101495.78;5096300;27;20035;-75
2023/07/13 10:35:01;;;;;;;2.35;1.10;;;;;;;22.05;75.53;101485.47;5079068;27;20160;-73
2023/07/13 10:37:54;;;;;;;1.15;1.00;;;;;;;22.20;75.49;101489.56;5096896;27;20533;-74
2023/07/13 10:40:42;;;;;;;;;;;;;;;22.34;71.00;101491.06;5081842;27;20034;-73
2023/07/13 10:43:37;;;;;;;2.72;1.10;;;;;;;22.44;72.84;101492.97;5082934;27;19935;-73
2023/07/13 10:46:27;;;;;;;2.05;1.13;;;;;;;22.23;74.41;101501.94;5082175;27;20032;-74
2023/07/13 10:49:13;;;;;;;3.03;1.35;;;;;;;21.88;72.96;101497.66;5099599;27;20031;-77
2023/07/13 10:51:59;;;;;;;1.83;1.00;;;;;;;21.74;73.69;101505.06;5094835;27;20027;-76
2023/07/13 10:54:45;;;;;;;2.10;1.15;;;;;;;21.76;73.15;101510.31;5095946;27;20517;-72
2023/07/13 10:57:31;;;;;;;2.85;1.10;;;;;;;21.72;73.48;101506.19;5090847;27;20055;-72
2023/07/13 11:00:18;;;;;;;1.75;0.90;;;;;;;21.83;74.09;101509.69;5092039;27;20048;-72
2023/07/13 11:03:04;;;;;;;3.03;1.23;;;;;;;21.79;72.16;101515.47;5098408;27;20449;-73
2023/07/13 11:06:14;;;;;;;2.42;1.10;;;;;;;21.56;72.77;101520.84;5085128;27;20042;-73
2023/07/13 11:09:38;;;;;;;2.58;1.08;;;;;;;21.62;72.45;101520.34;5080719;27;20084;-73
2023/07/13 11:12:25;;;;;;;3.03;1.10;;;;;;;21.68;73.09;101519.03;5097197;27;20126;-73
2023/07/13 11:15:12;;;;;;;5.20;1.25;;;;;;;21.67;72.65;101510.06;5094255;27;20047;-76
2023/07/13 11:18:02;;;;;;;2.17;1.00;;;;;;;21.64;72.78;101531.00;5076674;27;20045;-74
2023/07/13 11:20:49;;;;;;;3.30;1.42;;;;;;;21.65;72.99;101532.72;5080078;28;20511;-75
2023/07/13 11:23:42;;;;;;;3.92;1.13;;;;;;;21.55;71.80;101528.09;5079481;28;20028;-74
2023/07/13 11:26:50;;;;;;;2.65;1.13;;;;;;;21.61;69.94;101525.91;5059798;27;20393;-75
2023/07/13 11:29:40;;;;;;;2.33;1.08;;;;;;;21.82;72.56;101531.38;5092054;27;20055;-73
2023/07/13 11:32:30;;;;;;;1.77;1.20;;;;;;;21.93;71.21;101523.25;5083579;27;20048;-73
2023/07/13 11:35:22;;;;;;;4.72;1.05;;;;;;;21.88;69.79;101533.56;5063898;27;20071;-73
2023/07/13 11:38:19;;;;;;;3.67;1.10;;;;;;;21.90;70.39;101528.03;5057466;28;20074;-73
2023/07/13 11:41:17;;;;;;;1.63;1.00;;;;;;;22.00;68.96;101530.81;5092969;28;20048;-74
2023/07/13 11:44:12;;;;;;;4.13;1.40;;;;;;;22.03;69.52;101546.72;5075176;28;20476;-73
2023/07/13 11:47:02;;;;;;;3.45;1.30;;;;;;;21.98;72.07;101549.81;5093594;28;20030;-72
2023/07/13 11:49:50;;;;;;;2.80;1.13;;;;;;;22.04;71.96;101543.03;5082651;28;20055;-71
2023/07/13 11:52:37;;;;;;;1.90;0.90;;;;;;;22.05;71.88;101545.63;5097229;28;20048;-72
2023/07/13 11:55:24;;;;;;;1.80;0.90;;;;;;;22.15;71.83;101550.22;5095539;28;20053;-73
2023/07/13 11:58:11;;;;;;;4.22;1.20;;;;;;;22.22;72.03;101548.75;5081393;27;20043;-72
2023/07/13 12:01:04;;;;;;;2.03;1.10;;;;;;;22.23;70.71;101548.59;5082075;28;20081;-72
2023/07/13 12:03:51;;;;;;;2.50;1.02;;;;;;;22.27;70.83;101549.19;5082240;28;20420;-71
2023/07/13 12:06:40;;;;;;;2.58;1.02;;;;;;;22.39;71.13;101556.25;5077048;28;20039;-72
2023/07/13 12:09:28;;;;;;;2.25;1.05;;;;;;;22.37;69.89;101550.16;5076970;27;20512;-72
2023/07/13 12:12:17;;;;;;;3.25;1.08;;;;;;;22.39;70.22;101550.03;5096892;27;20043;-72
2023/07/13 12:15:07;;;;;;;4.20;1.00;;;;;;;22.36;67.39;101561.06;5094221;27;20039;-72
2023/07/13 12:17:57;;;;;;;2.35;0.88;;;;;;;22.06;68.25;101568.06;5103543;27;20495;-72
2023/07/13 12:20:45;;;;;;;1.73;0.90;;;;;;;21.93;69.33;101563.69;5077808;27;20071;-71
2023/07/13 12:23:35;;;;;;;3.33;1.17;;;;;;;21.98;69.68;101558.78;5094246;27;20035;-71
2023/07/13 12:26:25;;;;;;;3.85;1.20;;;;;;;22.04;70.88;101560.09;5105562;27;20040;-71
2023/07/13 12:29:15;;;;;;;0.90;0.82;;;;;;;21.99;69.65;101562.31;5082275;27;20034;-72
2023/07/13 12:32:01;;;;;;;5.97;1.30;;;;;;;21.86;71.38;101558.91;5080660;27;20031;-72
2023/07/13 12:35:08;;;;;;;2.65;1.10;;;;;;;21.73;71.81;101562.63;5082642;27;20036;-72
2023/07/13 12:37:57;;;;;;;4.03;1.35;;;;;;;21.77;73.33;101569.47;5083173;27;20050;-72
2023/07/13 12:40:43;;;;;;;3.92;1.52;;;;;;;21.78;74.30;101567.66;5095335;27;20042;-71
2023/07/13 12:43:36;;;;;;;3.55;1.55;;;;;;;21.58;73.61;101581.72;5074737;27;20040;-72
2023/07/13 12:46:24;;;;;;;3.22;1.60;;;;;;;21.43;74.73;101573.06;5082787;27;20069;-72
2023/07/13 12:49:13;;;;;;;2.97;1.38;;;;;;;21.36;75.37;101576.34;5079711;27;20073;-72
2023/07/13 12:52:01;;;;;;;3.15;1.48;;;;;;;21.37;74.97;101572.69;5093103;27;20162;-72
2023/07/13 12:54:56;;;;;;;2.53;1.27;;;;;;;21.50;74.39;101586.00;5090706;27;20039;-71